sensor_id;sensor_type;location;lat;lon;timestamp;P1;durP1;ratioP1;P2;durP2;ratioP2
27706;SDS011;36332;51.384;0.040;2023-06-22T00:00:25;15.07;;;7.75;;
27706;SDS011;36332;51.384;0.040;2023-06-22T00:02:53;15.70;;;8.57;;
27706;SDS011;36332;51.384;0.040;2023-06-22T00:05:21;13.82;;;8.18;;
27706;SDS011;36332;51.384;0.040;2023-06-22T00:07:48;20.02;;;8.38;;
27706;SDS011;36332;51.384;0.040;2023-06-22T00:10:16;14.13;;;7.35;;
27706;SDS011;36332;51.384;0.040;2023-06-22T00:12:44;11.93;;;7.82;;
27706;SDS011;36332;51.384;0.040;2023-06-22T00:15:11;15.35;;;8.13;;
27706;SDS011;36332;51.384;0.040;2023-06-22T00:17:39;18.52;;;8.73;;
27706;SDS011;36332;51.384;0.040;2023-06-22T00:20:06;13.95;;;9.13;;
27706;SDS011;36332;51.384;0.040;2023-06-22T00:22:35;14.65;;;8.75;;
27706;SDS011;36332;51.384;0.040;2023-06-22T00:25:08;12.05;;;8.20;;
27706;SDS011;36332;51.384;0.040;2023-06-22T00:27:36;18.80;;;8.50;;
27706;SDS011;36332;51.384;0.040;2023-06-22T00:30:06;16.35;;;8.32;;
27706;SDS011;36332;51.384;0.040;2023-06-22T00:32:34;15.60;;;9.15;;
27706;SDS011;36332;51.384;0.040;2023-06-22T00:35:02;18.05;;;8.48;;
27706;SDS011;36332;51.384;0.040;2023-06-22T00:37:30;13.23;;;8.63;;
27706;SDS011;36332;51.384;0.040;2023-06-22T00:39:58;14.40;;;7.55;;
27706;SDS011;36332;51.384;0.040;2023-06-22T00:42:26;18.67;;;9.45;;
27706;SDS011;36332;51.384;0.040;2023-06-22T00:44:53;20.00;;;9.15;;
27706;SDS011;36332;51.384;0.040;2023-06-22T00:47:23;13.07;;;8.48;;
27706;SDS011;36332;51.384;0.040;2023-06-22T00:49:51;13.90;;;8.25;;
27706;SDS011;36332;51.384;0.040;2023-06-22T00:52:20;12.00;;;8.40;;
27706;SDS011;36332;51.384;0.040;2023-06-22T00:54:55;14.68;;;8.02;;
27706;SDS011;36332;51.384;0.040;2023-06-22T00:57:24;17.17;;;8.73;;
27706;SDS011;36332;51.384;0.040;2023-06-22T00:59:55;17.60;;;9.82;;
27706;SDS011;36332;51.384;0.040;2023-06-22T01:02:23;13.35;;;9.32;;
27706;SDS011;36332;51.384;0.040;2023-06-22T01:04:51;13.48;;;9.05;;
27706;SDS011;36332;51.384;0.040;2023-06-22T01:10:25;17.70;;;8.32;;
27706;SDS011;36332;51.384;0.040;2023-06-22T01:13:13;14.02;;;8.00;;
27706;SDS011;36332;51.384;0.040;2023-06-22T01:18:52;15.02;;;9.48;;
27706;SDS011;36332;51.384;0.040;2023-06-22T01:21:23;16.38;;;9.85;;
27706;SDS011;36332;51.384;0.040;2023-06-22T01:26:38;14.63;;;8.40;;
27706;SDS011;36332;51.384;0.040;2023-06-22T01:29:14;17.27;;;8.88;;
27706;SDS011;36332;51.384;0.040;2023-06-22T01:31:43;16.27;;;9.40;;
27706;SDS011;36332;51.384;0.040;2023-06-22T01:34:12;15.48;;;8.43;;
27706;SDS011;36332;51.384;0.040;2023-06-22T01:36:42;18.98;;;9.05;;
27706;SDS011;36332;51.384;0.040;2023-06-22T01:39:11;19.17;;;9.55;;
27706;SDS011;36332;51.384;0.040;2023-06-22T01:41:39;18.17;;;9.55;;
27706;SDS011;36332;51.384;0.040;2023-06-22T01:44:09;11.90;;;8.75;;
27706;SDS011;36332;51.384;0.040;2023-06-22T01:46:37;18.33;;;8.50;;
27706;SDS011;36332;51.384;0.040;2023-06-22T01:49:07;13.90;;;8.65;;
27706;SDS011;36332;51.384;0.040;2023-06-22T01:51:36;18.67;;;9.63;;
27706;SDS011;36332;51.384;0.040;2023-06-22T01:54:05;14.00;;;9.38;;
27706;SDS011;36332;51.384;0.040;2023-06-22T01:56:35;12.85;;;8.20;;
27706;SDS011;36332;51.384;0.040;2023-06-22T01:59:05;14.38;;;9.52;;
27706;SDS011;36332;51.384;0.040;2023-06-22T02:01:42;11.55;;;8.82;;
27706;SDS011;36332;51.384;0.040;2023-06-22T02:04:22;14.55;;;8.70;;
27706;SDS011;36332;51.384;0.040;2023-06-22T02:06:58;14.25;;;8.77;;
27706;SDS011;36332;51.384;0.040;2023-06-22T02:09:28;18.90;;;8.95;;
27706;SDS011;36332;51.384;0.040;2023-06-22T02:12:00;14.70;;;8.98;;
27706;SDS011;36332;51.384;0.040;2023-06-22T02:14:30;13.18;;;9.68;;
27706;SDS011;36332;51.384;0.040;2023-06-22T02:16:59;16.30;;;9.35;;
27706;SDS011;36332;51.384;0.040;2023-06-22T02:19:27;14.23;;;9.32;;
27706;SDS011;36332;51.384;0.040;2023-06-22T02:22:00;15.63;;;10.63;;
27706;SDS011;36332;51.384;0.040;2023-06-22T02:24:28;23.13;;;9.88;;
27706;SDS011;36332;51.384;0.040;2023-06-22T02:26:58;14.85;;;9.07;;
27706;SDS011;36332;51.384;0.040;2023-06-22T02:29:27;15.70;;;8.98;;
27706;SDS011;36332;51.384;0.040;2023-06-22T02:31:55;11.68;;;8.73;;
27706;SDS011;36332;51.384;0.040;2023-06-22T02:34:22;12.63;;;7.82;;
27706;SDS011;36332;51.384;0.040;2023-06-22T02:36:50;13.40;;;8.77;;
27706;SDS011;36332;51.384;0.040;2023-06-22T02:39:19;12.02;;;7.90;;
27706;SDS011;36332;51.384;0.040;2023-06-22T02:41:52;14.20;;;7.57;;
27706;SDS011;36332;51.384;0.040;2023-06-22T02:44:22;15.38;;;7.70;;
27706;SDS011;36332;51.384;0.040;2023-06-22T02:46:50;16.55;;;8.60;;
27706;SDS011;36332;51.384;0.040;2023-06-22T02:49:18;18.45;;;8.82;;
27706;SDS011;36332;51.384;0.040;2023-06-22T02:51:46;13.02;;;8.63;;
27706;SDS011;36332;51.384;0.040;2023-06-22T02:54:19;12.93;;;9.00;;
27706;SDS011;36332;51.384;0.040;2023-06-22T02:56:50;14.05;;;7.90;;
27706;SDS011;36332;51.384;0.040;2023-06-22T02:59:18;12.20;;;8.60;;
27706;SDS011;36332;51.384;0.040;2023-06-22T03:01:52;12.02;;;8.57;;
27706;SDS011;36332;51.384;0.040;2023-06-22T03:04:27;16.40;;;8.48;;
27706;SDS011;36332;51.384;0.040;2023-06-22T03:06:55;18.02;;;8.65;;
27706;SDS011;36332;51.384;0.040;2023-06-22T03:09:23;15.07;;;9.13;;
27706;SDS011;36332;51.384;0.040;2023-06-22T03:11:50;14.32;;;8.45;;
27706;SDS011;36332;51.384;0.040;2023-06-22T03:14:20;25.38;;;10.43;;
27706;SDS011;36332;51.384;0.040;2023-06-22T03:16:48;14.15;;;8.30;;
27706;SDS011;36332;51.384;0.040;2023-06-22T03:19:15;14.07;;;9.18;;
27706;SDS011;36332;51.384;0.040;2023-06-22T03:21:43;15.43;;;8.38;;
27706;SDS011;36332;51.384;0.040;2023-06-22T03:24:11;15.02;;;8.55;;
27706;SDS011;36332;51.384;0.040;2023-06-22T03:26:38;18.70;;;8.80;;
27706;SDS011;36332;51.384;0.040;2023-06-22T03:29:06;13.32;;;8.40;;
27706;SDS011;36332;51.384;0.040;2023-06-22T03:31:34;15.05;;;9.25;;
27706;SDS011;36332;51.384;0.040;2023-06-22T03:34:02;13.98;;;8.48;;
27706;SDS011;36332;51.384;0.040;2023-06-22T03:36:30;16.40;;;9.00;;
27706;SDS011;36332;51.384;0.040;2023-06-22T03:38:57;13.23;;;8.73;;
27706;SDS011;36332;51.384;0.040;2023-06-22T03:41:26;15.98;;;8.93;;
27706;SDS011;36332;51.384;0.040;2023-06-22T03:43:54;13.52;;;7.88;;
27706;SDS011;36332;51.384;0.040;2023-06-22T03:46:21;13.13;;;8.48;;
27706;SDS011;36332;51.384;0.040;2023-06-22T03:48:49;14.48;;;8.05;;
27706;SDS011;36332;51.384;0.040;2023-06-22T03:51:17;19.05;;;8.75;;
27706;SDS011;36332;51.384;0.040;2023-06-22T03:53:44;17.25;;;9.68;;
27706;SDS011;36332;51.384;0.040;2023-06-22T03:56:12;18.15;;;9.27;;
27706;SDS011;36332;51.384;0.040;2023-06-22T03:58:40;15.68;;;8.43;;
27706;SDS011;36332;51.384;0.040;2023-06-22T04:01:10;11.70;;;8.02;;
27706;SDS011;36332;51.384;0.040;2023-06-22T04:03:38;12.43;;;9.27;;
27706;SDS011;36332;51.384;0.040;2023-06-22T04:06:06;13.63;;;9.00;;
27706;SDS011;36332;51.384;0.040;2023-06-22T04:08:34;11.85;;;9.05;;
27706;SDS011;36332;51.384;0.040;2023-06-22T04:11:02;25.02;;;9.00;;
27706;SDS011;36332;51.384;0.040;2023-06-22T04:13:30;14.68;;;8.95;;
27706;SDS011;36332;51.384;0.040;2023-06-22T04:15:58;14.07;;;9.93;;
27706;SDS011;36332;51.384;0.040;2023-06-22T04:18:25;13.65;;;8.93;;
27706;SDS011;36332;51.384;0.040;2023-06-22T04:20:53;21.10;;;10.63;;
27706;SDS011;36332;51.384;0.040;2023-06-22T04:23:20;14.75;;;9.55;;
27706;SDS011;36332;51.384;0.040;2023-06-22T04:25:48;16.45;;;9.95;;
27706;SDS011;36332;51.384;0.040;2023-06-22T04:28:16;18.98;;;10.75;;
27706;SDS011;36332;51.384;0.040;2023-06-22T04:30:44;18.92;;;9.60;;
27706;SDS011;36332;51.384;0.040;2023-06-22T04:33:15;17.67;;;9.93;;
27706;SDS011;36332;51.384;0.040;2023-06-22T04:35:46;13.45;;;9.10;;
27706;SDS011;36332;51.384;0.040;2023-06-22T04:38:13;23.00;;;10.02;;
27706;SDS011;36332;51.384;0.040;2023-06-22T04:40:41;15.23;;;8.95;;
27706;SDS011;36332;51.384;0.040;2023-06-22T04:43:09;17.88;;;9.63;;
27706;SDS011;36332;51.384;0.040;2023-06-22T04:45:37;13.88;;;8.52;;
27706;SDS011;36332;51.384;0.040;2023-06-22T04:48:05;16.58;;;9.13;;
27706;SDS011;36332;51.384;0.040;2023-06-22T04:50:33;14.50;;;9.43;;
27706;SDS011;36332;51.384;0.040;2023-06-22T04:53:01;18.55;;;9.90;;
27706;SDS011;36332;51.384;0.040;2023-06-22T04:55:32;15.45;;;9.30;;
27706;SDS011;36332;51.384;0.040;2023-06-22T04:58:00;18.58;;;9.43;;
27706;SDS011;36332;51.384;0.040;2023-06-22T05:00:32;16.25;;;9.20;;
27706;SDS011;36332;51.384;0.040;2023-06-22T05:03:03;16.05;;;9.05;;
27706;SDS011;36332;51.384;0.040;2023-06-22T05:05:46;18.85;;;8.95;;
27706;SDS011;36332;51.384;0.040;2023-06-22T05:08:14;20.85;;;9.60;;
27706;SDS011;36332;51.384;0.040;2023-06-22T05:10:42;14.80;;;9.07;;
27706;SDS011;36332;51.384;0.040;2023-06-22T05:13:29;18.05;;;9.63;;
27706;SDS011;36332;51.384;0.040;2023-06-22T05:15:57;15.73;;;9.93;;
27706;SDS011;36332;51.384;0.040;2023-06-22T05:18:29;15.40;;;9.15;;
27706;SDS011;36332;51.384;0.040;2023-06-22T05:20:57;14.70;;;9.85;;
27706;SDS011;36332;51.384;0.040;2023-06-22T05:23:26;15.20;;;9.77;;
27706;SDS011;36332;51.384;0.040;2023-06-22T05:25:54;17.55;;;10.38;;
27706;SDS011;36332;51.384;0.040;2023-06-22T05:28:25;21.65;;;11.23;;
27706;SDS011;36332;51.384;0.040;2023-06-22T05:30:53;15.85;;;9.00;;
27706;SDS011;36332;51.384;0.040;2023-06-22T05:33:20;20.20;;;9.18;;
27706;SDS011;36332;51.384;0.040;2023-06-22T05:35:48;18.90;;;10.40;;
27706;SDS011;36332;51.384;0.040;2023-06-22T05:38:15;13.15;;;8.93;;
27706;SDS011;36332;51.384;0.040;2023-06-22T05:40:43;13.90;;;9.80;;
27706;SDS011;36332;51.384;0.040;2023-06-22T05:43:11;17.13;;;9.35;;
27706;SDS011;36332;51.384;0.040;2023-06-22T05:45:39;13.70;;;9.18;;
27706;SDS011;36332;51.384;0.040;2023-06-22T05:48:07;21.80;;;9.93;;
27706;SDS011;36332;51.384;0.040;2023-06-22T05:50:34;16.45;;;9.32;;
27706;SDS011;36332;51.384;0.040;2023-06-22T05:53:03;17.30;;;9.15;;
27706;SDS011;36332;51.384;0.040;2023-06-22T05:55:31;21.02;;;10.43;;
27706;SDS011;36332;51.384;0.040;2023-06-22T05:58:01;11.88;;;8.70;;
27706;SDS011;36332;51.384;0.040;2023-06-22T06:00:30;14.82;;;8.55;;
27706;SDS011;36332;51.384;0.040;2023-06-22T06:02:58;18.50;;;9.35;;
27706;SDS011;36332;51.384;0.040;2023-06-22T06:05:31;19.17;;;9.48;;
27706;SDS011;36332;51.384;0.040;2023-06-22T06:08:00;15.38;;;8.73;;
27706;SDS011;36332;51.384;0.040;2023-06-22T06:10:28;16.70;;;9.18;;
27706;SDS011;36332;51.384;0.040;2023-06-22T06:12:57;20.15;;;9.75;;
27706;SDS011;36332;51.384;0.040;2023-06-22T06:15:25;14.40;;;10.00;;
27706;SDS011;36332;51.384;0.040;2023-06-22T06:17:53;16.25;;;9.30;;
27706;SDS011;36332;51.384;0.040;2023-06-22T06:20:22;15.23;;;9.25;;
27706;SDS011;36332;51.384;0.040;2023-06-22T06:22:51;20.25;;;9.30;;
27706;SDS011;36332;51.384;0.040;2023-06-22T06:25:19;14.35;;;10.18;;
27706;SDS011;36332;51.384;0.040;2023-06-22T06:27:49;20.15;;;10.32;;
27706;SDS011;36332;51.384;0.040;2023-06-22T06:30:18;15.65;;;9.05;;
27706;SDS011;36332;51.384;0.040;2023-06-22T06:32:46;17.48;;;9.73;;
27706;SDS011;36332;51.384;0.040;2023-06-22T06:35:15;16.42;;;9.38;;
27706;SDS011;36332;51.384;0.040;2023-06-22T06:37:45;20.30;;;9.57;;
27706;SDS011;36332;51.384;0.040;2023-06-22T06:40:14;18.35;;;9.18;;
27706;SDS011;36332;51.384;0.040;2023-06-22T06:42:44;18.77;;;9.05;;
27706;SDS011;36332;51.384;0.040;2023-06-22T06:45:17;15.77;;;10.25;;
27706;SDS011;36332;51.384;0.040;2023-06-22T06:47:46;18.35;;;10.57;;
27706;SDS011;36332;51.384;0.040;2023-06-22T06:50:14;17.35;;;9.07;;
27706;SDS011;36332;51.384;0.040;2023-06-22T06:52:43;18.05;;;10.68;;
27706;SDS011;36332;51.384;0.040;2023-06-22T06:55:11;14.10;;;9.77;;
27706;SDS011;36332;51.384;0.040;2023-06-22T06:57:40;21.88;;;11.13;;
27706;SDS011;36332;51.384;0.040;2023-06-22T07:00:09;20.25;;;10.45;;
27706;SDS011;36332;51.384;0.040;2023-06-22T07:02:42;13.95;;;10.18;;
27706;SDS011;36332;51.384;0.040;2023-06-22T07:05:11;14.35;;;10.18;;
27706;SDS011;36332;51.384;0.040;2023-06-22T07:07:40;17.63;;;10.68;;
27706;SDS011;36332;51.384;0.040;2023-06-22T07:10:09;17.85;;;10.15;;
27706;SDS011;36332;51.384;0.040;2023-06-22T07:12:37;18.02;;;10.13;;
27706;SDS011;36332;51.384;0.040;2023-06-22T07:15:05;19.02;;;11.57;;
27706;SDS011;36332;51.384;0.040;2023-06-22T07:17:38;20.77;;;12.07;;
27706;SDS011;36332;51.384;0.040;2023-06-22T07:20:08;16.17;;;10.65;;
27706;SDS011;36332;51.384;0.040;2023-06-22T07:22:38;21.13;;;11.93;;
27706;SDS011;36332;51.384;0.040;2023-06-22T07:25:08;13.88;;;10.38;;
27706;SDS011;36332;51.384;0.040;2023-06-22T07:28:01;21.38;;;11.30;;
27706;SDS011;36332;51.384;0.040;2023-06-22T07:30:31;24.60;;;12.98;;
27706;SDS011;36332;51.384;0.040;2023-06-22T07:33:00;19.33;;;11.85;;
27706;SDS011;36332;51.384;0.040;2023-06-22T07:35:30;17.50;;;10.95;;
27706;SDS011;36332;51.384;0.040;2023-06-22T07:37:58;17.10;;;10.68;;
27706;SDS011;36332;51.384;0.040;2023-06-22T07:40:31;18.52;;;10.10;;
27706;SDS011;36332;51.384;0.040;2023-06-22T07:43:00;17.25;;;10.15;;
27706;SDS011;36332;51.384;0.040;2023-06-22T07:45:28;19.85;;;10.52;;
27706;SDS011;36332;51.384;0.040;2023-06-22T07:47:56;16.20;;;10.82;;
27706;SDS011;36332;51.384;0.040;2023-06-22T07:50:24;19.00;;;9.88;;
27706;SDS011;36332;51.384;0.040;2023-06-22T07:52:52;20.77;;;11.20;;
27706;SDS011;36332;51.384;0.040;2023-06-22T07:55:20;19.38;;;10.93;;
27706;SDS011;36332;51.384;0.040;2023-06-22T07:57:48;18.52;;;8.82;;
27706;SDS011;36332;51.384;0.040;2023-06-22T08:00:19;18.15;;;9.80;;
27706;SDS011;36332;51.384;0.040;2023-06-22T08:02:47;17.95;;;10.57;;
27706;SDS011;36332;51.384;0.040;2023-06-22T08:05:15;12.90;;;8.70;;
27706;SDS011;36332;51.384;0.040;2023-06-22T08:07:48;14.27;;;9.05;;
27706;SDS011;36332;51.384;0.040;2023-06-22T08:10:16;18.27;;;10.73;;
27706;SDS011;36332;51.384;0.040;2023-06-22T08:12:44;19.55;;;10.50;;
27706;SDS011;36332;51.384;0.040;2023-06-22T08:15:12;16.35;;;9.65;;
27706;SDS011;36332;51.384;0.040;2023-06-22T08:17:39;15.98;;;8.50;;
27706;SDS011;36332;51.384;0.040;2023-06-22T08:20:07;15.27;;;9.20;;
27706;SDS011;36332;51.384;0.040;2023-06-22T08:22:40;19.38;;;9.73;;
27706;SDS011;36332;51.384;0.040;2023-06-22T08:25:09;13.02;;;8.50;;
27706;SDS011;36332;51.384;0.040;2023-06-22T08:27:37;12.02;;;7.60;;
27706;SDS011;36332;51.384;0.040;2023-06-22T08:30:06;12.15;;;8.25;;
27706;SDS011;36332;51.384;0.040;2023-06-22T08:32:35;13.13;;;8.55;;
27706;SDS011;36332;51.384;0.040;2023-06-22T08:35:02;16.20;;;7.88;;
27706;SDS011;36332;51.384;0.040;2023-06-22T08:37:30;15.13;;;7.95;;
27706;SDS011;36332;51.384;0.040;2023-06-22T08:39:59;11.52;;;7.45;;
27706;SDS011;36332;51.384;0.040;2023-06-22T08:42:28;10.80;;;6.75;;
27706;SDS011;36332;51.384;0.040;2023-06-22T08:44:56;13.40;;;6.60;;
27706;SDS011;36332;51.384;0.040;2023-06-22T08:47:23;10.55;;;8.05;;
27706;SDS011;36332;51.384;0.040;2023-06-22T08:49:51;11.98;;;8.80;;
27706;SDS011;36332;51.384;0.040;2023-06-22T08:52:19;13.38;;;8.77;;
27706;SDS011;36332;51.384;0.040;2023-06-22T08:54:47;11.15;;;8.20;;
27706;SDS011;36332;51.384;0.040;2023-06-22T08:57:15;14.27;;;7.90;;
27706;SDS011;36332;51.384;0.040;2023-06-22T08:59:43;10.07;;;7.50;;
27706;SDS011;36332;51.384;0.040;2023-06-22T09:02:11;11.75;;;8.70;;
27706;SDS011;36332;51.384;0.040;2023-06-22T09:04:38;11.15;;;7.97;;
27706;SDS011;36332;51.384;0.040;2023-06-22T09:07:06;11.23;;;7.72;;
27706;SDS011;36332;51.384;0.040;2023-06-22T09:09:34;15.43;;;7.90;;
27706;SDS011;36332;51.384;0.040;2023-06-22T09:12:02;13.82;;;7.22;;
27706;SDS011;36332;51.384;0.040;2023-06-22T09:14:30;15.65;;;7.25;;
27706;SDS011;36332;51.384;0.040;2023-06-22T09:16:57;9.63;;;6.75;;
27706;SDS011;36332;51.384;0.040;2023-06-22T09:19:25;11.68;;;6.43;;
27706;SDS011;36332;51.384;0.040;2023-06-22T09:21:53;8.95;;;5.75;;
27706;SDS011;36332;51.384;0.040;2023-06-22T09:24:21;11.27;;;7.65;;
27706;SDS011;36332;51.384;0.040;2023-06-22T09:26:48;10.02;;;6.63;;
27706;SDS011;36332;51.384;0.040;2023-06-22T09:29:17;13.40;;;6.70;;
27706;SDS011;36332;51.384;0.040;2023-06-22T09:31:45;8.27;;;5.85;;
27706;SDS011;36332;51.384;0.040;2023-06-22T09:34:12;8.73;;;5.75;;
27706;SDS011;36332;51.384;0.040;2023-06-22T09:36:41;10.18;;;6.10;;
27706;SDS011;36332;51.384;0.040;2023-06-22T09:39:08;10.43;;;6.30;;
27706;SDS011;36332;51.384;0.040;2023-06-22T09:41:36;11.90;;;6.55;;
27706;SDS011;36332;51.384;0.040;2023-06-22T09:44:04;13.02;;;5.90;;
27706;SDS011;36332;51.384;0.040;2023-06-22T09:46:31;8.95;;;4.72;;
27706;SDS011;36332;51.384;0.040;2023-06-22T09:48:59;9.95;;;5.93;;
27706;SDS011;36332;51.384;0.040;2023-06-22T09:51:27;8.15;;;6.00;;
27706;SDS011;36332;51.384;0.040;2023-06-22T09:53:55;15.25;;;6.50;;
27706;SDS011;36332;51.384;0.040;2023-06-22T09:56:22;13.55;;;7.03;;
27706;SDS011;36332;51.384;0.040;2023-06-22T09:58:50;13.52;;;6.45;;
27706;SDS011;36332;51.384;0.040;2023-06-22T10:01:20;13.50;;;6.50;;
27706;SDS011;36332;51.384;0.040;2023-06-22T10:03:49;10.18;;;6.15;;
27706;SDS011;36332;51.384;0.040;2023-06-22T10:06:17;8.30;;;5.75;;
27706;SDS011;36332;51.384;0.040;2023-06-22T10:08:44;9.50;;;6.72;;
27706;SDS011;36332;51.384;0.040;2023-06-22T10:11:12;8.98;;;5.60;;
27706;SDS011;36332;51.384;0.040;2023-06-22T10:13:40;22.35;;;5.78;;
27706;SDS011;36332;51.384;0.040;2023-06-22T10:16:07;8.98;;;5.90;;
27706;SDS011;36332;51.384;0.040;2023-06-22T10:18:35;9.93;;;5.88;;
27706;SDS011;36332;51.384;0.040;2023-06-22T10:21:03;8.90;;;6.18;;
27706;SDS011;36332;51.384;0.040;2023-06-22T10:23:31;11.95;;;6.57;;
27706;SDS011;36332;51.384;0.040;2023-06-22T10:25:58;11.25;;;6.43;;
27706;SDS011;36332;51.384;0.040;2023-06-22T10:28:26;12.70;;;6.70;;
27706;SDS011;36332;51.384;0.040;2023-06-22T10:30:56;10.93;;;6.63;;
27706;SDS011;36332;51.384;0.040;2023-06-22T10:33:24;8.60;;;6.03;;
27706;SDS011;36332;51.384;0.040;2023-06-22T10:35:52;11.68;;;6.50;;
27706;SDS011;36332;51.384;0.040;2023-06-22T10:38:19;11.98;;;5.32;;
27706;SDS011;36332;51.384;0.040;2023-06-22T10:40:48;8.98;;;5.18;;
27706;SDS011;36332;51.384;0.040;2023-06-22T10:43:15;10.20;;;5.78;;
27706;SDS011;36332;51.384;0.040;2023-06-22T10:45:43;12.93;;;5.78;;
27706;SDS011;36332;51.384;0.040;2023-06-22T10:48:11;5.80;;;4.95;;
27706;SDS011;36332;51.384;0.040;2023-06-22T10:50:38;8.95;;;6.05;;
27706;SDS011;36332;51.384;0.040;2023-06-22T10:53:06;11.05;;;6.07;;
27706;SDS011;36332;51.384;0.040;2023-06-22T10:55:34;6.47;;;4.90;;
27706;SDS011;36332;51.384;0.040;2023-06-22T10:58:21;5.93;;;4.03;;
27706;SDS011;36332;51.384;0.040;2023-06-22T11:00:49;6.75;;;4.47;;
27706;SDS011;36332;51.384;0.040;2023-06-22T11:03:17;7.05;;;4.15;;
27706;SDS011;36332;51.384;0.040;2023-06-22T11:05:44;7.70;;;4.45;;
27706;SDS011;36332;51.384;0.040;2023-06-22T11:08:13;5.88;;;4.05;;
27706;SDS011;36332;51.384;0.040;2023-06-22T11:10:41;7.07;;;4.78;;
27706;SDS011;36332;51.384;0.040;2023-06-22T11:13:09;7.78;;;4.65;;
27706;SDS011;36332;51.384;0.040;2023-06-22T11:15:38;6.28;;;4.47;;
27706;SDS011;36332;51.384;0.040;2023-06-22T11:18:06;5.15;;;4.65;;
27706;SDS011;36332;51.384;0.040;2023-06-22T11:20:34;8.88;;;5.00;;
27706;SDS011;36332;51.384;0.040;2023-06-22T11:23:06;11.73;;;6.00;;
27706;SDS011;36332;51.384;0.040;2023-06-22T11:25:34;10.30;;;5.88;;
27706;SDS011;36332;51.384;0.040;2023-06-22T11:28:02;8.88;;;4.65;;
27706;SDS011;36332;51.384;0.040;2023-06-22T11:30:30;9.20;;;4.60;;
27706;SDS011;36332;51.384;0.040;2023-06-22T11:32:58;9.90;;;5.30;;
27706;SDS011;36332;51.384;0.040;2023-06-22T11:35:26;8.65;;;5.30;;
27706;SDS011;36332;51.384;0.040;2023-06-22T11:37:53;6.57;;;5.10;;
27706;SDS011;36332;51.384;0.040;2023-06-22T11:40:23;7.47;;;4.78;;
27706;SDS011;36332;51.384;0.040;2023-06-22T11:42:51;8.65;;;4.90;;
27706;SDS011;36332;51.384;0.040;2023-06-22T11:45:19;7.20;;;4.65;;
27706;SDS011;36332;51.384;0.040;2023-06-22T11:47:47;8.10;;;4.82;;
27706;SDS011;36332;51.384;0.040;2023-06-22T11:50:15;10.32;;;5.25;;
27706;SDS011;36332;51.384;0.040;2023-06-22T11:52:42;7.95;;;4.65;;
27706;SDS011;36332;51.384;0.040;2023-06-22T11:55:10;7.40;;;4.95;;
27706;SDS011;36332;51.384;0.040;2023-06-22T11:57:38;8.35;;;4.63;;
27706;SDS011;36332;51.384;0.040;2023-06-22T12:00:19;6.35;;;4.13;;
27706;SDS011;36332;51.384;0.040;2023-06-22T12:02:47;7.00;;;4.32;;
27706;SDS011;36332;51.384;0.040;2023-06-22T12:05:15;7.50;;;4.22;;
27706;SDS011;36332;51.384;0.040;2023-06-22T12:07:43;6.20;;;4.88;;
27706;SDS011;36332;51.384;0.040;2023-06-22T12:10:11;9.57;;;4.75;;
27706;SDS011;36332;51.384;0.040;2023-06-22T12:12:39;7.53;;;4.43;;
27706;SDS011;36332;51.384;0.040;2023-06-22T12:15:06;14.65;;;5.07;;
27706;SDS011;36332;51.384;0.040;2023-06-22T12:17:36;6.18;;;4.15;;
27706;SDS011;36332;51.384;0.040;2023-06-22T12:20:04;9.48;;;4.68;;
27706;SDS011;36332;51.384;0.040;2023-06-22T12:22:33;7.25;;;4.50;;
27706;SDS011;36332;51.384;0.040;2023-06-22T12:25:01;7.25;;;4.57;;
27706;SDS011;36332;51.384;0.040;2023-06-22T12:27:28;7.13;;;4.70;;
27706;SDS011;36332;51.384;0.040;2023-06-22T12:29:57;6.40;;;4.25;;
27706;SDS011;36332;51.384;0.040;2023-06-22T12:32:25;9.23;;;4.78;;
27706;SDS011;36332;51.384;0.040;2023-06-22T12:34:53;8.38;;;6.60;;
27706;SDS011;36332;51.384;0.040;2023-06-22T12:37:21;14.23;;;5.50;;
27706;SDS011;36332;51.384;0.040;2023-06-22T12:39:49;5.47;;;4.60;;
27706;SDS011;36332;51.384;0.040;2023-06-22T12:42:17;6.35;;;3.65;;
27706;SDS011;36332;51.384;0.040;2023-06-22T12:44:44;6.18;;;4.03;;
27706;SDS011;36332;51.384;0.040;2023-06-22T12:47:12;10.98;;;3.92;;
27706;SDS011;36332;51.384;0.040;2023-06-22T12:49:40;4.80;;;3.72;;
27706;SDS011;36332;51.384;0.040;2023-06-22T12:52:10;5.20;;;3.83;;
27706;SDS011;36332;51.384;0.040;2023-06-22T12:54:38;4.85;;;3.45;;
27706;SDS011;36332;51.384;0.040;2023-06-22T12:57:20;6.10;;;3.80;;
27706;SDS011;36332;51.384;0.040;2023-06-22T12:59:49;12.82;;;5.03;;
27706;SDS011;36332;51.384;0.040;2023-06-22T13:02:17;5.88;;;4.07;;
27706;SDS011;36332;51.384;0.040;2023-06-22T13:04:44;8.52;;;4.10;;
27706;SDS011;36332;51.384;0.040;2023-06-22T13:07:13;5.80;;;3.40;;
27706;SDS011;36332;51.384;0.040;2023-06-22T13:09:50;6.97;;;4.38;;
27706;SDS011;36332;51.384;0.040;2023-06-22T13:12:20;6.05;;;3.35;;
27706;SDS011;36332;51.384;0.040;2023-06-22T13:14:48;7.32;;;3.60;;
27706;SDS011;36332;51.384;0.040;2023-06-22T13:17:16;8.25;;;3.72;;
27706;SDS011;36332;51.384;0.040;2023-06-22T13:19:44;5.03;;;3.60;;
27706;SDS011;36332;51.384;0.040;2023-06-22T13:22:32;8.27;;;3.72;;
27706;SDS011;36332;51.384;0.040;2023-06-22T13:25:06;5.07;;;3.90;;
27706;SDS011;36332;51.384;0.040;2023-06-22T13:27:34;5.97;;;4.07;;
27706;SDS011;36332;51.384;0.040;2023-06-22T13:30:01;8.57;;;3.47;;
27706;SDS011;36332;51.384;0.040;2023-06-22T13:32:30;7.90;;;3.40;;
27706;SDS011;36332;51.384;0.040;2023-06-22T13:34:58;7.10;;;3.55;;
27706;SDS011;36332;51.384;0.040;2023-06-22T13:37:25;5.95;;;3.30;;
27706;SDS011;36332;51.384;0.040;2023-06-22T13:39:54;7.85;;;3.70;;
27706;SDS011;36332;51.384;0.040;2023-06-22T13:42:23;5.70;;;3.80;;
27706;SDS011;36332;51.384;0.040;2023-06-22T13:44:51;5.68;;;3.65;;
27706;SDS011;36332;51.384;0.040;2023-06-22T13:47:18;7.95;;;4.05;;
27706;SDS011;36332;51.384;0.040;2023-06-22T13:49:46;4.82;;;3.65;;
27706;SDS011;36332;51.384;0.040;2023-06-22T13:52:13;6.40;;;2.97;;
27706;SDS011;36332;51.384;0.040;2023-06-22T13:54:41;5.32;;;3.25;;
27706;SDS011;36332;51.384;0.040;2023-06-22T13:57:08;4.93;;;3.65;;
27706;SDS011;36332;51.384;0.040;2023-06-22T13:59:36;6.85;;;4.20;;
27706;SDS011;36332;51.384;0.040;2023-06-22T14:02:04;4.13;;;3.42;;
27706;SDS011;36332;51.384;0.040;2023-06-22T14:04:31;10.43;;;3.35;;
27706;SDS011;36332;51.384;0.040;2023-06-22T14:06:59;3.75;;;3.10;;
27706;SDS011;36332;51.384;0.040;2023-06-22T14:09:27;5.03;;;3.33;;
27706;SDS011;36332;51.384;0.040;2023-06-22T14:11:54;8.13;;;3.03;;
27706;SDS011;36332;51.384;0.040;2023-06-22T14:14:22;6.13;;;3.00;;
27706;SDS011;36332;51.384;0.040;2023-06-22T14:16:50;4.65;;;3.50;;
27706;SDS011;36332;51.384;0.040;2023-06-22T14:19:18;4.88;;;3.00;;
27706;SDS011;36332;51.384;0.040;2023-06-22T14:21:45;7.53;;;2.90;;
27706;SDS011;36332;51.384;0.040;2023-06-22T14:24:13;5.03;;;2.90;;
27706;SDS011;36332;51.384;0.040;2023-06-22T14:26:40;3.47;;;2.90;;
27706;SDS011;36332;51.384;0.040;2023-06-22T14:29:08;3.42;;;2.60;;
27706;SDS011;36332;51.384;0.040;2023-06-22T14:31:36;4.30;;;3.00;;
27706;SDS011;36332;51.384;0.040;2023-06-22T14:34:04;5.18;;;2.50;;
27706;SDS011;36332;51.384;0.040;2023-06-22T14:36:32;5.60;;;3.00;;
27706;SDS011;36332;51.384;0.040;2023-06-22T14:39:00;4.65;;;3.00;;
27706;SDS011;36332;51.384;0.040;2023-06-22T14:41:29;6.38;;;3.53;;
27706;SDS011;36332;51.384;0.040;2023-06-22T14:43:57;5.55;;;3.70;;
27706;SDS011;36332;51.384;0.040;2023-06-22T14:46:25;7.90;;;3.53;;
27706;SDS011;36332;51.384;0.040;2023-06-22T14:48:54;5.30;;;2.97;;
27706;SDS011;36332;51.384;0.040;2023-06-22T14:51:22;7.20;;;3.20;;
27706;SDS011;36332;51.384;0.040;2023-06-22T14:53:50;6.05;;;2.53;;